Flight Track Log - Related Links

Times and Time Zones

All times are in EDT time to prevent confusion due to time zone crossing. See the N978AC flight status page for this flight to view local times or setup timezone preferences in your user account.

Time Position Orientation Groundspeed Altitude Reporting Facility
EDT Latitude Longitude Course Direction KTS MPH feet Rate Location/Type
Sun 01:06:52 PM 30.5303 -99.8117 337° Northwest 94 108 4,000  Level Houston Center
Sun 01:07:54 PM 30.5578 -99.8117 360° North 94 108 4,300 336 Climbing Houston Center
Sun 01:08:57 PM 30.5850 -99.8114 North 95 109 4,700 432 Climbing Houston Center
Sun 01:09:59 PM 30.6111 -99.8278 332° Northwest 93 107 5,200 387 Climbing Houston Center
Sun 01:11:01 PM 30.6286 -99.8431 323° Northwest 85 98 5,500 290 Climbing Houston Center
Sun 01:12:00 PM 30.5976 -99.8238 337° Northwest  Level FlightAware Approximate
Sun 01:12:03 PM 30.6453 -99.8592 320° Northwest 84 97 5,800  Level Houston Center
Sun 01:13:05 PM 30.6658 -99.8736 329° Northwest 83 96 6,100 145 Climbing Houston Center
Sun 01:14:07 PM 30.6900 -99.8894 331° Northwest 88 101 6,100  Level Houston Center
Sun 01:15:09 PM 30.7133 -99.9072 327° Northwest 94 108 6,100 -48 Level Houston Center
Sun 01:16:12 PM 30.7406 -99.9283 326° Northwest 95 109 6,000 -48 Descending Houston Center
Sun 01:17:14 PM 30.7622 -99.9442 328° Northwest 95 109 6,000  Level Houston Center
Sun 01:18:16 PM 30.7828 -99.9597 327° Northwest 94 108 6,000  Level Houston Center
Sun 01:19:18 PM 30.8050 -99.9769 326° Northwest 94 108 6,000  Level Houston Center
Sun 01:20:20 PM 30.8267 -99.9939 326° Northwest 94 108 6,000  Level Houston Center
Sun 01:21:22 PM 30.8539 -100.0139 328° Northwest 94 108 6,000 48 Level Houston Center
Sun 01:22:24 PM 30.8756 -100.0314 325° Northwest 94 108 6,100  Climbing Houston Center
Sun 01:23:27 PM 30.8956 -100.0481 324° Northwest 94 108 6,000 -48 Descending Houston Center
Sun 01:24:29 PM 30.9128 -100.0675 316° Northwest 92 106 6,000  Level Houston Center
Sun 01:25:31 PM 30.9319 -100.0869 319° Northwest 91 105 6,000  Level Houston Center
Sun 01:26:33 PM 30.9522 -100.1022 327° Northwest 91 105 6,000 48 Level Houston Center
Sun 01:27:36 PM 30.9789 -100.1206 329° Northwest 91 105 6,100 48 Climbing Houston Center
Sun 01:28:37 PM 30.9997 -100.1356 328° Northwest 91 105 6,100  Level Houston Center
Sun 01:29:40 PM 31.0225 -100.1528 327° Northwest 91 105 6,100 -48 Level Houston Center
Sun 01:30:42 PM 31.0442 -100.1686 328° Northwest 91 105 6,000 -48 Descending Houston Center
Sun 01:31:44 PM 31.0672 -100.1853 328° Northwest 92 106 6,000 48 Level Houston Center
Sun 01:32:47 PM 31.0950 -100.2064 327° Northwest 93 107 6,100  Climbing Houston Center
Sun 01:34:51 PM 31.1419 -100.2333 334° Northwest 94 108 6,000 -32 Descending Houston Center
Sun 01:35:53 PM 31.1689 -100.2528 328° Northwest 99 114 6,000 48 Level Fort Worth Center
Sun 01:36:55 PM 31.1911 -100.2753 319° Northwest 97 112 6,100 48 Climbing Fort Worth Center
Sun 01:37:57 PM 31.2108 -100.2942 321° Northwest 95 109 6,100  Level Fort Worth Center
Sun 01:38:59 PM 31.2300 -100.3128 320° Northwest 89 102 6,100  Level Fort Worth Center
Sun 01:40:01 PM 31.2519 -100.3344 320° Northwest 95 109 6,100 -48 Level Fort Worth Center
Sun 01:41:03 PM 31.2703 -100.3556 315° West 95 109 6,000 -48 Descending Fort Worth Center
Sun 01:42:06 PM 31.2886 -100.3786 313° West 93 107 6,000  Level Fort Worth Center
Sun 01:43:08 PM 31.3067 -100.3972 319° Northwest 91 105 6,000 48 Level Fort Worth Center
Sun 01:44:10 PM 31.3294 -100.4133 329° Northwest 90 104 6,100  Climbing Fort Worth Center
Sun 01:45:12 PM 31.3497 -100.4286 327° Northwest 89 102 6,000 -48 Descending Fort Worth Center
Sun 01:46:14 PM 31.3706 -100.4458 325° Northwest 89 102 6,000  Level Fort Worth Center
Sun 01:47:16 PM 31.3836 -100.4653 308° West 83 96 6,000 48 Level Fort Worth Center
Sun 01:48:18 PM 31.3939 -100.4897 296° West 81 93 6,100 48 Climbing Fort Worth Center
Sun 01:49:20 PM 31.4017 -100.5114 293° West 74 85 6,100 -48 Level Fort Worth Center
Sun 01:50:22 PM 31.4111 -100.5358 294° West 74 85 6,000 -48 Descending Fort Worth Center
Sun 01:51:24 PM 31.4192 -100.5572 294° West 74 85 6,000 48 Level Fort Worth Center
Sun 01:52:26 PM 31.4269 -100.5789 293° West 74 85 6,100 48 Climbing Fort Worth Center
Sun 01:53:28 PM 31.4353 -100.6028 292° West 73 84 6,100  Level Fort Worth Center
Sun 01:54:30 PM 31.4431 -100.6256 292° West 74 85 6,100  Level Fort Worth Center
Sun 01:55:32 PM 31.4536 -100.6494 297° West 76 87 6,100  Level Fort Worth Center
Sun 01:56:34 PM 31.4614 -100.6722 292° West 76 87 6,100  Level Fort Worth Center
Sun 01:57:36 PM 31.4694 -100.6969 291° West 76 87 6,100 -48 Level Fort Worth Center
Sun 01:58:38 PM 31.4775 -100.7208 292° West 76 87 6,000 -48 Descending Fort Worth Center
Sun 01:59:40 PM 31.4853 -100.7461 290° West 77 89 6,000 48 Level Fort Worth Center
Sun 02:00:43 PM 31.4925 -100.7692 290° West 76 87 6,100 48 Climbing Fort Worth Center
Sun 02:01:45 PM 31.5042 -100.7897 304° West 78 90 6,100 -48 Level Fort Worth Center
Sun 02:02:47 PM 31.5122 -100.8122 293° West 74 85 6,000 -48 Descending Fort Worth Center
Sun 02:03:49 PM 31.5219 -100.8342 297° West 74 85 6,000  Level Fort Worth Center
Sun 02:04:51 PM 31.5322 -100.8567 298° West 74 85 6,000 48 Level Fort Worth Center
Sun 02:05:53 PM 31.5419 -100.8772 299° West 73 84 6,100 48 Climbing Fort Worth Center
Sun 02:06:55 PM 31.5422 -100.9014 271° West 71 82 6,100 -48 Level Fort Worth Center
Sun 02:07:57 PM 31.5492 -100.9222 291° West 70 81 6,000  Descending Fort Worth Center
Sun 02:09:00 PM 31.5597 -100.9433 300° West 70 81 6,100  Climbing Fort Worth Center
Sun 02:10:02 PM 31.5703 -100.9636 301° West 72 83 6,000  Descending Fort Worth Center
Sun 02:11:04 PM 31.5797 -100.9842 298° West 72 83 6,100  Climbing Fort Worth Center
Sun 02:12:06 PM 31.5850 -101.0108 283° West 75 86 6,000 -194 Descending Fort Worth Center
Sun 02:13:08 PM 31.5947 -101.0322 298° West 76 87 5,700 -339 Descending Fort Worth Center
Sun 02:14:10 PM 31.6053 -101.0589 295° West 81 93 5,300 -290 Descending Fort Worth Center
Sun 02:15:12 PM 31.6150 -101.0839 295° West 85 98 5,100 -145 Descending Fort Worth Center
Sun 02:16:14 PM 31.6236 -101.1075 293° West 76 87 5,000 -48 Descending Fort Worth Center
Sun 02:17:16 PM 31.6328 -101.1303 295° West 77 89 5,000 97 Level Fort Worth Center
Sun 02:18:18 PM 31.6408 -101.1556 291° West 77 89 5,200  Climbing Fort Worth Center
Sun 02:19:21 PM 31.6469 -101.1850 284° West 92 106 5,000 -96 Descending Fort Worth Center
Sun 02:20:23 PM 31.6550 -101.2094 291° West 84 97 5,000  Level Fort Worth Center
Sun 02:21:25 PM 31.6647 -101.2300 299° West 69 79 5,000 48 Level Fort Worth Center
Sun 02:22:27 PM 31.6708 -101.2519 288° West 75 86 5,100  Climbing Fort Worth Center
Sun 02:23:29 PM 31.6789 -101.2839 287° West 81 93 5,000  Descending Fort Worth Center
Sun 02:24:31 PM 31.6900 -101.3078 299° West 81 93 5,100 48 Climbing Fort Worth Center
Sun 02:25:33 PM 31.7008 -101.3361 294° West 85 98 5,100  Level Fort Worth Center
Sun 02:26:35 PM 31.7142 -101.3628 300° West 90 104 5,100 -48 Level Fort Worth Center
Sun 02:27:37 PM 31.7247 -101.3858 298° West 89 102 5,000 -48 Descending Fort Worth Center
Sun 02:28:40 PM 31.7347 -101.4033 304° West 73 84 5,000 48 Level Fort Worth Center
Sun 02:29:42 PM 31.7428 -101.4289 290° West 69 79 5,100 -48 Climbing Fort Worth Center
Sun 02:30:44 PM 31.7494 -101.4525 288° West 75 86 4,900 -48 Descending Fort Worth Center
Sun 02:31:46 PM 31.7569 -101.4675 300° West 61 70 5,000 97 Climbing Fort Worth Center
Sun 02:32:48 PM 31.7631 -101.4858 291° West 61 70 5,100 48 Climbing Fort Worth Center
Sun 02:33:50 PM 31.7661 -101.5081 279° West 65 75 5,100 -97 Level Fort Worth Center
Sun 02:34:52 PM 31.7739 -101.5319 291° West 76 87 4,900 -97 Descending Fort Worth Center
Sun 02:35:54 PM 31.7889 -101.5494 315° West 68 78 4,900 48 Level Fort Worth Center
Sun 02:36:56 PM 31.8011 -101.5611 321° Northwest 61 70 5,000  Climbing Fort Worth Center
Sun 02:37:58 PM 31.8150 -101.5769 316° Northwest 63 72 4,900  Descending Fort Worth Center
Sun 02:39:01 PM 31.8283 -101.5919 316° Northwest 66 76 5,000  Climbing Fort Worth Center
Sun 02:40:03 PM 31.8378 -101.6097 302° West 66 76 4,900 48 Descending Fort Worth Center
Sun 02:41:05 PM 31.8508 -101.6300 307° West 64 74 5,100 -48 Climbing Fort Worth Center
Sun 02:42:07 PM 31.8631 -101.6503 305° West 74 85 4,800  Descending Fort Worth Center
Sun 02:43:09 PM 31.8719 -101.6686 300° West 70 81 5,100 97 Climbing Fort Worth Center
Sun 02:44:11 PM 31.8817 -101.6889 299° West 69 79 5,000  Descending Fort Worth Center
Sun 02:45:13 PM 31.8953 -101.7086 309° West 73 84 5,100 -48 Climbing Fort Worth Center
Sun 02:46:15 PM 31.9031 -101.7314 292° West 73 84 4,900 -48 Descending Fort Worth Center
Sun 02:47:17 PM 31.9108 -101.7514 295° West 61 70 5,000  Climbing Fort Worth Center
Sun 02:48:19 PM 31.9192 -101.7672 302° West 59 68 4,900 -48 Descending Fort Worth Center
Sun 02:49:22 PM 31.9206 -101.7817 276° West 60 69 4,900 96 Level Fort Worth Center
Sun 02:50:24 PM 31.9100 -101.7914 218° Southwest 59 68 5,100 65 Climbing Fort Worth Center
Sun 02:52:28 PM 31.9058 -101.8322 285° West 57 66 5,100 -32 Level Fort Worth Center
Sun 02:53:30 PM 31.8975 -101.8536 245° Southwest 66 76 5,000  Descending Fort Worth Center
Sun 02:54:32 PM 31.8892 -101.8725 243° Southwest 69 79 5,100 -48 Climbing Fort Worth Center
Sun 02:55:34 PM 31.8831 -101.8956 253° West 69 79 4,900 -48 Descending Fort Worth Center
Sun 02:56:36 PM 31.8764 -101.9153 248° West 69 79 5,000 97 Climbing Fort Worth Center
Sun 02:57:38 PM 31.8675 -101.9319 238° Southwest 67 77 5,100  Climbing Fort Worth Center
Sun 02:58:41 PM 31.8567 -101.9539 240° Southwest 64 74 5,000 -96 Descending Fort Worth Center
Sun 02:59:43 PM 31.8617 -101.9739 286° West 68 78 4,900 97 Descending Fort Worth Center
Sun 03:00:45 PM 31.8664 -101.9908 288° West 60 69 5,200 97 Climbing Fort Worth Center
Sun 03:01:47 PM 31.8731 -102.0119 290° West 60 69 5,100 -97 Descending Fort Worth Center
Sun 03:02:49 PM 31.8808 -102.0372 290° West 70 81 5,000 -97 Descending Fort Worth Center
Sun 03:03:51 PM 31.8917 -102.0600 299° West 76 87 4,900 -194 Descending Fort Worth Center
Sun 03:04:53 PM 31.8983 -102.0797 292° West 67 77 4,600  Descending Fort Worth Center
Sun 03:05:55 PM 31.9044 -102.0981 291° West 64 74 4,900 -242 Climbing Fort Worth Center
Sun 03:06:57 PM 31.9153 -102.1200 300° West 66 76 4,100 -532 Descending Fort Worth Center
Sun 03:07:59 PM 31.9225 -102.1453 289° West 75 86 3,800 -336 Descending Fort Worth Center
Sun 03:09:02 PM 31.9308 -102.1686 293° West 75 86 3,400 -336 Descending Fort Worth Center
Sun 03:10:04 PM 31.9389 -102.1908 293° West 75 86 3,100 -290 Descending Fort Worth Center

Login

Don't have an account? Register now (free) for customized features, flight alerts, and more!